createdAt,value
2022-08-06T00:00:38.961Z,18.01
2022-08-06T00:03:29.869Z,18.01
2022-08-06T00:06:16.681Z,17.99
2022-08-06T00:09:05.195Z,17.95
2022-08-06T00:11:59.139Z,17.87
2022-08-06T00:14:44.313Z,17.86
2022-08-06T00:17:31.782Z,17.79
2022-08-06T00:20:25.921Z,17.74
2022-08-06T00:23:17.415Z,17.71
2022-08-06T00:26:02.305Z,17.72
2022-08-06T00:28:47.279Z,17.74
2022-08-06T00:31:32.847Z,17.73
2022-08-06T00:34:18.051Z,17.72
2022-08-06T00:37:04.915Z,17.70
2022-08-06T00:40:03.835Z,17.71
2022-08-06T00:42:51.670Z,17.67
2022-08-06T00:45:45.544Z,17.67
2022-08-06T00:48:37.771Z,17.65
2022-08-06T00:51:51.085Z,17.62
2022-08-06T00:54:37.192Z,17.61
2022-08-06T00:57:26.722Z,17.56
2022-08-06T01:00:29.501Z,17.55
2022-08-06T01:03:18.706Z,17.50
2022-08-06T01:06:54.426Z,17.44
2022-08-06T01:09:17.140Z,17.37
2022-08-06T01:12:03.606Z,17.40
2022-08-06T01:15:02.530Z,17.42
2022-08-06T01:18:09.887Z,17.44
2022-08-06T01:21:56.580Z,17.41
2022-08-06T01:24:53.218Z,17.39
2022-08-06T01:28:13.113Z,17.33
2022-08-06T01:31:17.775Z,17.35
2022-08-06T01:34:09.982Z,17.33
2022-08-06T01:37:27.065Z,17.35
2022-08-06T01:40:28.493Z,17.29
2022-08-06T01:44:05.912Z,17.29
2022-08-06T01:46:24.175Z,17.32
2022-08-06T01:49:26.207Z,17.39
2022-08-06T01:52:17.460Z,17.45
2022-08-06T01:55:21.577Z,17.51
2022-08-06T01:58:27.177Z,17.56
2022-08-06T02:01:16.358Z,17.59
2022-08-06T02:04:06.884Z,17.59
2022-08-06T02:06:56.755Z,17.58
2022-08-06T02:09:43.935Z,17.54
2022-08-06T02:12:34.880Z,17.51
2022-08-06T02:15:56.243Z,17.50
2022-08-06T02:18:37.613Z,17.47
2022-08-06T02:21:32.233Z,17.41
2022-08-06T02:24:20.110Z,17.40
2022-08-06T02:27:08.065Z,17.38
2022-08-06T02:30:06.349Z,17.34
2022-08-06T02:32:51.932Z,17.33
2022-08-06T02:35:50.911Z,17.31
2022-08-06T02:38:52.381Z,17.35
2022-08-06T02:41:55.350Z,17.36
2022-08-06T02:45:01.678Z,17.40
2022-08-06T02:48:01.870Z,17.41
2022-08-06T02:50:49.742Z,17.40
2022-08-06T02:54:02.603Z,17.41
2022-08-06T02:56:51.829Z,17.49
2022-08-06T02:59:47.696Z,17.55
2022-08-06T03:02:44.782Z,17.65
2022-08-06T03:05:56.249Z,17.77
2022-08-06T03:08:37.524Z,17.88
2022-08-06T03:11:24.831Z,18.02
2022-08-06T03:15:04.612Z,18.13
2022-08-06T03:17:19.929Z,18.29
2022-08-06T03:20:08.662Z,18.53
2022-08-06T03:23:05.332Z,18.76
2022-08-06T03:25:51.711Z,18.97
2022-08-06T03:28:36.973Z,19.15
2022-08-06T03:31:23.385Z,19.36
2022-08-06T03:34:19.525Z,19.63
2022-08-06T03:37:08.232Z,19.88
2022-08-06T03:39:55.381Z,20.14
2022-08-06T03:42:43.992Z,20.40
2022-08-06T03:45:45.998Z,20.65
2022-08-06T03:48:42.366Z,20.87
2022-08-06T03:51:50.636Z,21.08
2022-08-06T03:54:41.184Z,21.26
2022-08-06T03:57:47.422Z,21.45
2022-08-06T04:00:40.793Z,21.76
2022-08-06T04:03:35.374Z,22.27
2022-08-06T04:06:27.486Z,22.67
2022-08-06T04:09:13.854Z,23.00
2022-08-06T04:13:06.400Z,23.27
2022-08-06T04:15:24.960Z,23.42
2022-08-06T04:18:23.925Z,23.45
2022-08-06T04:22:56.615Z,23.68
2022-08-06T04:24:22.294Z,23.90
2022-08-06T04:27:10.793Z,24.05
2022-08-06T04:30:02.192Z,24.24
2022-08-06T04:33:00.990Z,24.37
2022-08-06T04:36:05.000Z,24.47
2022-08-06T04:38:53.141Z,24.61
2022-08-06T04:41:38.920Z,24.69
2022-08-06T04:44:28.222Z,24.79
2022-08-06T04:47:14.984Z,24.84
2022-08-06T04:50:09.127Z,24.92
2022-08-06T04:53:08.651Z,24.93
2022-08-06T04:56:03.685Z,25.04
2022-08-06T04:58:49.290Z,25.20
2022-08-06T05:01:40.803Z,25.39
2022-08-06T05:04:40.294Z,25.56
2022-08-06T05:07:49.755Z,25.67
2022-08-06T05:11:16.157Z,25.83
2022-08-06T05:14:15.792Z,26.02
2022-08-06T05:17:02.575Z,26.04
2022-08-06T05:19:54.285Z,26.00
2022-08-06T05:22:54.208Z,25.84
2022-08-06T05:25:40.117Z,25.80
2022-08-06T05:28:40.651Z,25.88
2022-08-06T05:31:29.956Z,25.95
2022-08-06T05:34:23.694Z,25.91
2022-08-06T05:37:09.630Z,25.97
2022-08-06T05:39:57.939Z,25.99
2022-08-06T05:42:44.096Z,26.02
2022-08-06T05:45:45.232Z,26.16
2022-08-06T05:48:35.096Z,26.23
2022-08-06T05:51:42.743Z,26.24
2022-08-06T05:54:38.456Z,26.29
2022-08-06T05:57:41.742Z,26.32
2022-08-06T06:00:44.010Z,26.36
2022-08-06T06:03:33.357Z,26.34
2022-08-06T06:06:19.006Z,26.44
2022-08-06T06:09:03.761Z,26.56
2022-08-06T06:12:01.595Z,26.62
2022-08-06T06:14:49.015Z,26.75
2022-08-06T06:17:59.885Z,26.82
2022-08-06T06:21:04.174Z,26.96
2022-08-06T06:24:40.302Z,27.09
2022-08-06T06:27:56.223Z,27.29
2022-08-06T06:31:02.283Z,27.48
2022-08-06T06:33:53.769Z,27.62
2022-08-06T06:36:56.405Z,27.74
2022-08-06T06:40:02.638Z,27.89
2022-08-06T06:43:01.496Z,27.89
2022-08-06T06:46:39.138Z,28.03
2022-08-06T06:49:59.870Z,28.21
2022-08-06T06:52:49.186Z,28.22
2022-08-06T06:55:57.445Z,28.28
2022-08-06T06:58:49.393Z,28.45
2022-08-06T07:01:35.895Z,28.76
2022-08-06T07:04:26.929Z,29.05
2022-08-06T07:07:23.179Z,29.32
2022-08-06T07:10:11.705Z,29.61
2022-08-06T07:12:58.502Z,29.73
2022-08-06T07:15:44.755Z,29.68
2022-08-06T07:18:39.939Z,29.97
2022-08-06T07:21:36.522Z,30.10
2022-08-06T07:24:40.224Z,30.10
2022-08-06T07:27:44.955Z,30.25
2022-08-06T07:30:36.586Z,30.45
2022-08-06T07:33:23.112Z,30.68
2022-08-06T07:36:11.593Z,30.81
2022-08-06T07:39:04.646Z,31.18
2022-08-06T07:42:11.290Z,31.06
2022-08-06T07:45:03.437Z,30.83
2022-08-06T07:47:55.859Z,30.95
2022-08-06T07:50:45.286Z,31.30
2022-08-06T07:53:40.951Z,31.37
2022-08-06T07:56:39.688Z,31.48
2022-08-06T07:59:45.234Z,31.30
2022-08-06T08:02:30.393Z,30.90
2022-08-06T08:05:38.923Z,31.07
2022-08-06T08:08:29.909Z,31.75
2022-08-06T08:11:18.049Z,32.47
2022-08-06T08:14:07.309Z,33.00
2022-08-06T08:16:52.564Z,33.38
2022-08-06T08:19:38.703Z,33.53
2022-08-06T08:22:24.804Z,33.78
2022-08-06T08:25:10.076Z,33.76
2022-08-06T08:27:55.778Z,33.95
2022-08-06T08:30:41.795Z,34.40
2022-08-06T08:33:27.109Z,34.83
2022-08-06T08:36:12.113Z,34.91
2022-08-06T08:38:58.071Z,35.37
2022-08-06T08:42:02.029Z,35.58
2022-08-06T08:44:53.579Z,35.32
2022-08-06T08:47:57.469Z,34.43
2022-08-06T08:50:43.423Z,33.13
2022-08-06T08:53:53.825Z,33.37
2022-08-06T08:57:08.621Z,33.92
2022-08-06T08:59:59.997Z,33.78
2022-08-06T09:02:48.620Z,33.80
2022-08-06T09:05:35.864Z,34.31
2022-08-06T09:08:58.893Z,34.71
2022-08-06T09:12:06.088Z,34.40
2022-08-06T09:14:33.472Z,35.01
2022-08-06T09:18:12.444Z,35.57
2022-08-06T09:20:23.858Z,36.29
2022-08-06T09:23:08.801Z,36.81
2022-08-06T09:25:57.776Z,37.06
2022-08-06T09:28:45.189Z,37.37
2022-08-06T09:31:44.681Z,37.53
2022-08-06T09:34:39.363Z,37.74
2022-08-06T09:37:53.212Z,37.81
2022-08-06T09:40:39.606Z,38.28
2022-08-06T09:43:34.351Z,38.28
2022-08-06T09:46:42.128Z,37.81
2022-08-06T09:49:47.675Z,37.95
2022-08-06T09:53:00.666Z,38.45
2022-08-06T09:55:45.951Z,38.27
2022-08-06T09:58:35.811Z,38.26
2022-08-06T10:01:23.459Z,38.28
2022-08-06T10:04:36.618Z,38.07
2022-08-06T10:07:40.614Z,38.26
2022-08-06T10:10:46.825Z,38.61
2022-08-06T10:13:43.854Z,38.84
2022-08-06T10:16:33.865Z,39.41
2022-08-06T10:19:19.661Z,39.28
2022-08-06T10:22:18.273Z,38.56
2022-08-06T10:25:12.723Z,37.01
2022-08-06T10:28:01.199Z,35.86
2022-08-06T10:30:46.541Z,35.22
2022-08-06T10:33:40.870Z,35.87
2022-08-06T10:36:36.749Z,37.02
2022-08-06T10:40:09.514Z,38.25
2022-08-06T10:42:37.210Z,39.01
2022-08-06T10:45:27.231Z,39.77
2022-08-06T10:48:59.449Z,40.12
2022-08-06T10:51:17.879Z,40.39
2022-08-06T10:54:24.640Z,40.83
2022-08-06T10:57:12.924Z,41.23
2022-08-06T11:00:09.154Z,41.38
2022-08-06T11:03:15.614Z,41.47
2022-08-06T11:06:28.146Z,41.36
2022-08-06T11:10:00.104Z,42.00
2022-08-06T11:12:59.339Z,42.15
2022-08-06T11:15:45.323Z,41.92
2022-08-06T11:18:30.296Z,42.12
2022-08-06T11:21:58.831Z,42.37
2022-08-06T11:24:54.743Z,42.67
2022-08-06T11:28:04.886Z,41.47
2022-08-06T11:30:53.798Z,39.66
2022-08-06T11:33:39.121Z,38.10
2022-08-06T11:36:27.999Z,36.49
2022-08-06T11:39:17.512Z,35.38
2022-08-06T11:42:03.733Z,34.89
2022-08-06T11:45:06.093Z,35.21
2022-08-06T11:48:12.959Z,35.12
2022-08-06T11:51:43.915Z,36.27
2022-08-06T11:54:33.746Z,38.59
2022-08-06T11:57:32.877Z,39.81
2022-08-06T12:00:25.900Z,41.14
2022-08-06T12:03:16.230Z,40.72
2022-08-06T12:06:18.232Z,39.54
2022-08-06T12:09:16.016Z,37.68
2022-08-06T12:12:29.162Z,36.90
2022-08-06T12:15:20.160Z,38.70
2022-08-06T12:18:29.954Z,38.45
2022-08-06T12:21:18.364Z,37.95
2022-08-06T12:24:03.847Z,38.77
2022-08-06T12:26:49.386Z,39.77
2022-08-06T12:29:42.325Z,40.82
2022-08-06T12:32:30.446Z,42.04
2022-08-06T12:35:15.560Z,42.53
2022-08-06T12:38:01.538Z,42.73
2022-08-06T12:40:58.135Z,42.93
2022-08-06T12:43:56.977Z,43.42
2022-08-06T12:46:43.408Z,43.59
2022-08-06T12:49:42.262Z,42.73
2022-08-06T12:52:30.108Z,40.93
2022-08-06T12:55:19.284Z,39.14
2022-08-06T12:58:13.530Z,37.82
2022-08-06T13:01:16.288Z,36.95
2022-08-06T13:04:22.571Z,37.42
2022-08-06T13:07:20.437Z,39.56
2022-08-06T13:10:34.533Z,41.18
2022-08-06T13:14:13.450Z,42.72
2022-08-06T13:16:28.554Z,43.11
2022-08-06T13:19:18.973Z,41.27
2022-08-06T13:22:05.528Z,39.16
2022-08-06T13:25:48.540Z,36.99
2022-08-06T13:28:22.418Z,35.53
2022-08-06T13:31:36.599Z,34.57
2022-08-06T13:34:25.759Z,33.95
2022-08-06T13:37:15.726Z,34.84
2022-08-06T13:40:00.907Z,37.61
2022-08-06T13:42:53.542Z,39.94
2022-08-06T13:45:55.446Z,41.50
2022-08-06T13:48:50.389Z,42.57
2022-08-06T13:51:37.678Z,42.91
2022-08-06T13:54:37.949Z,43.25
2022-08-06T13:57:22.919Z,43.65
2022-08-06T14:00:08.347Z,43.63
2022-08-06T14:02:55.323Z,43.04
2022-08-06T14:05:41.199Z,42.92
2022-08-06T14:08:36.067Z,42.67
2022-08-06T14:11:22.022Z,42.73
2022-08-06T14:14:06.781Z,42.08
2022-08-06T14:16:53.879Z,39.43
2022-08-06T14:20:09.429Z,37.22
2022-08-06T14:22:43.299Z,35.53
2022-08-06T14:25:28.663Z,34.66
2022-08-06T14:28:34.706Z,34.07
2022-08-06T14:31:29.668Z,33.53
2022-08-06T14:34:14.688Z,32.83
2022-08-06T14:37:00.713Z,32.34
2022-08-06T14:39:59.407Z,32.05
2022-08-06T14:43:03.715Z,31.81
2022-08-06T14:45:49.727Z,31.70
2022-08-06T14:48:34.567Z,31.60
2022-08-06T14:51:22.915Z,31.42
2022-08-06T14:54:11.468Z,31.31
2022-08-06T14:57:14.869Z,31.29
2022-08-06T15:00:03.495Z,31.20
2022-08-06T15:02:51.751Z,31.22
2022-08-06T15:05:42.720Z,33.07
2022-08-06T15:08:48.652Z,35.48
2022-08-06T15:11:59.231Z,35.52
2022-08-06T15:14:39.018Z,34.54
2022-08-06T15:18:06.940Z,33.70
2022-08-06T15:20:41.426Z,33.33
2022-08-06T15:23:44.854Z,33.55
2022-08-06T15:26:42.254Z,34.03
2022-08-06T15:29:34.718Z,34.87
2022-08-06T15:32:20.173Z,34.50
2022-08-06T15:35:08.769Z,34.15
2022-08-06T15:37:57.689Z,33.75
2022-08-06T15:40:45.883Z,33.30
2022-08-06T15:43:43.714Z,33.95
2022-08-06T15:46:29.578Z,34.40
2022-08-06T15:49:20.645Z,35.30
2022-08-06T15:52:12.235Z,36.47
2022-08-06T15:54:57.285Z,37.06
2022-08-06T15:58:05.436Z,36.38
2022-08-06T16:01:00.186Z,35.86
2022-08-06T16:03:50.378Z,35.51
2022-08-06T16:06:42.486Z,34.63
2022-08-06T16:09:56.250Z,33.63
2022-08-06T16:12:40.990Z,33.71
2022-08-06T16:15:29.848Z,34.33
2022-08-06T16:18:31.152Z,34.77
2022-08-06T16:21:17.195Z,33.99
2022-08-06T16:24:04.207Z,33.23
2022-08-06T16:26:57.543Z,33.41
2022-08-06T16:29:44.192Z,33.67
2022-08-06T16:32:32.369Z,34.11
2022-08-06T16:35:21.217Z,34.40
2022-08-06T16:38:12.203Z,34.53
2022-08-06T16:41:02.586Z,34.47
2022-08-06T16:43:49.853Z,34.52
2022-08-06T16:46:38.040Z,34.47
2022-08-06T16:49:25.710Z,34.38
2022-08-06T16:52:42.633Z,34.21
2022-08-06T16:55:35.790Z,33.82
2022-08-06T16:58:35.295Z,33.52
2022-08-06T17:07:42.051Z,32.38
2022-08-06T17:10:30.705Z,31.80
2022-08-06T17:13:37.847Z,31.05
2022-08-06T17:16:29.087Z,30.25
2022-08-06T17:19:17.513Z,29.49
2022-08-06T17:22:03.466Z,28.78
2022-08-06T17:24:48.772Z,28.15
2022-08-06T17:27:44.169Z,27.61
2022-08-06T17:30:43.246Z,27.10
2022-08-06T17:33:40.022Z,26.70
2022-08-06T17:36:29.242Z,26.35
2022-08-06T17:39:19.990Z,26.04
2022-08-06T17:42:11.755Z,25.76
2022-08-06T17:44:56.937Z,25.52
2022-08-06T17:47:51.320Z,25.34
2022-08-06T17:50:40.565Z,25.16
2022-08-06T17:53:53.281Z,25.02
2022-08-06T17:56:32.617Z,24.85
2022-08-06T17:59:21.416Z,24.70
2022-08-06T18:02:07.321Z,24.56
2022-08-06T18:04:53.243Z,24.44
2022-08-06T18:08:11.889Z,24.31
2022-08-06T18:10:44.422Z,24.19
2022-08-06T18:13:52.594Z,24.07
2022-08-06T18:16:34.578Z,23.98
2022-08-06T18:19:21.053Z,23.93
2022-08-06T18:22:25.206Z,23.90
2022-08-06T18:25:15.120Z,23.84
2022-08-06T18:28:01.200Z,23.80
2022-08-06T18:30:48.117Z,23.78
2022-08-06T18:33:33.521Z,23.74
2022-08-06T18:36:18.494Z,23.69
2022-08-06T18:39:23.047Z,23.63
2022-08-06T18:42:23.558Z,23.54
2022-08-06T18:45:09.355Z,23.48
2022-08-06T18:47:59.660Z,23.40
2022-08-06T18:50:46.222Z,23.34
2022-08-06T18:54:02.062Z,23.27
2022-08-06T18:56:36.484Z,23.14
2022-08-06T18:59:23.165Z,23.03
2022-08-06T19:02:11.763Z,22.92
2022-08-06T19:05:01.036Z,22.87
2022-08-06T19:07:51.882Z,22.82
2022-08-06T19:10:38.673Z,22.75
2022-08-06T19:13:24.439Z,22.70
2022-08-06T19:16:29.673Z,22.62
2022-08-06T19:19:14.758Z,22.56
2022-08-06T19:21:59.756Z,22.51
2022-08-06T19:24:46.851Z,22.43
2022-08-06T19:28:30.243Z,22.36
2022-08-06T19:30:45.346Z,22.28
2022-08-06T19:33:31.285Z,22.21
2022-08-06T19:36:26.429Z,22.17
2022-08-06T19:39:53.197Z,22.11
2022-08-06T19:42:32.024Z,22.11
2022-08-06T19:45:18.028Z,22.10
2022-08-06T19:48:29.141Z,22.07
2022-08-06T19:52:02.585Z,22.00
2022-08-06T19:54:26.055Z,21.94
2022-08-06T19:57:21.492Z,21.89
2022-08-06T20:00:50.916Z,21.83
2022-08-06T20:03:14.045Z,21.76
2022-08-06T20:06:21.721Z,21.73
2022-08-06T20:09:05.293Z,21.68
2022-08-06T20:12:04.379Z,21.65
2022-08-06T20:14:52.758Z,21.58
2022-08-06T20:17:45.844Z,21.54
2022-08-06T20:20:33.746Z,21.50
2022-08-06T20:23:19.249Z,21.46
2022-08-06T20:26:09.044Z,21.39
2022-08-06T20:29:22.979Z,21.36
2022-08-06T20:32:16.914Z,21.34
2022-08-06T20:35:02.563Z,21.35
2022-08-06T20:37:52.517Z,21.31
2022-08-06T20:41:58.683Z,21.29
2022-08-06T20:44:05.029Z,21.19
2022-08-06T20:47:45.038Z,21.09
2022-08-06T20:50:04.183Z,21.05
2022-08-06T20:52:51.262Z,21.01
2022-08-06T20:55:38.545Z,20.99
2022-08-06T20:58:28.651Z,21.00
2022-08-06T21:01:19.941Z,21.01
2022-08-06T21:05:15.309Z,20.99
2022-08-06T21:07:13.819Z,21.01
2022-08-06T21:09:58.729Z,21.01
2022-08-06T21:12:59.074Z,20.99
2022-08-06T21:16:04.492Z,20.98
2022-08-06T21:18:52.240Z,20.97
2022-08-06T21:21:37.671Z,20.87
2022-08-06T21:24:23.829Z,20.78
2022-08-06T21:27:11.012Z,20.74
2022-08-06T21:30:09.917Z,20.72
2022-08-06T21:32:56.371Z,20.70
2022-08-06T21:35:43.723Z,20.67
2022-08-06T21:38:28.719Z,20.62
2022-08-06T21:41:29.998Z,20.57
2022-08-06T21:44:33.638Z,20.52
2022-08-06T21:47:19.621Z,20.50
2022-08-06T21:50:25.523Z,20.45
2022-08-06T21:53:48.646Z,20.42
2022-08-06T21:56:37.093Z,20.40
2022-08-06T21:59:23.667Z,20.39
2022-08-06T22:02:18.800Z,20.39
2022-08-06T22:06:15.096Z,20.36
2022-08-06T22:08:15.032Z,20.33
2022-08-06T22:12:37.794Z,20.31
2022-08-06T22:14:05.470Z,20.28
2022-08-06T22:16:54.237Z,20.25
2022-08-06T22:19:43.512Z,20.23
2022-08-06T22:22:28.853Z,20.23
2022-08-06T22:25:14.014Z,20.23
2022-08-06T22:28:02.381Z,20.25
2022-08-06T22:30:47.367Z,19.90
2022-08-06T22:33:33.543Z,19.89
2022-08-06T22:36:37.353Z,19.83
2022-08-06T22:39:39.879Z,19.84
2022-08-06T22:42:56.228Z,19.88
2022-08-06T22:46:00.205Z,19.90
2022-08-06T22:48:36.924Z,19.93
2022-08-06T22:51:28.765Z,19.88
2022-08-06T22:54:28.988Z,19.84
2022-08-06T22:57:25.701Z,19.79
2022-08-06T23:00:23.055Z,19.77
2022-08-06T23:03:13.518Z,19.76
2022-08-06T23:06:00.422Z,19.74
2022-08-06T23:08:45.961Z,19.75
2022-08-06T23:11:34.701Z,19.77
2022-08-06T23:14:27.382Z,19.77
2022-08-06T23:17:21.834Z,19.78
2022-08-06T23:20:11.709Z,19.79
2022-08-06T23:22:58.242Z,19.80
2022-08-06T23:26:00.609Z,19.76
2022-08-06T23:28:47.950Z,19.77
2022-08-06T23:31:37.190Z,19.76
2022-08-06T23:34:36.008Z,19.76
2022-08-06T23:37:21.269Z,19.76
2022-08-06T23:40:16.073Z,19.74
2022-08-06T23:43:01.511Z,19.69
2022-08-06T23:45:48.106Z,19.66
2022-08-06T23:48:33.211Z,19.61
2022-08-06T23:52:01.290Z,19.60
2022-08-06T23:54:28.778Z,19.57
2022-08-06T23:57:17.771Z,19.57
